»·PEaware :: N210AR KCMA-KSNA

N210AR :: KCMA-KSNA

FLIGHT INFORMATION

Flight Status: Arrived
Operator: Privately registered:
United States
More flights under this callsign
Pilot: Max S. (16657)
Aircraft: CESSNA 172 SKYHAWK
(C172)
More flights by this aircraft type
Origin: KCMA Camarillo
United States
Destination: KSNA John Wayne-Orange Co
United States
More flights between these airports :: More routes between these airports
Route: +
File this flight plan on PilotEdge
Remarks:
Altitude:
(Current/Filed)
3,500ft
Speed:
(Current/Filed)
100kts
Departed: 30-Sep-20 09:09 AM
Arrived: 30-Sep-20 09:53 AM
Distance/Time
Traveled:
69nm/0:44
Distance/Time
To Go:
Arrived

Flight Plot

Page will automatically refresh every two minutes.


Map Options




Map Legend


Flown Route
Filed Route
Departure Airport
Arrival Airport
Navaid (VOR, NDB)
Fix

Horizontal Profiles

Position Reports

Time Latitude Longitude Heading Altitude Ground
Speed
30-Sep-20 08:52 34.210558 -119.089695 276 69ft 0kts
30-Sep-20 08:53 34.210558 -119.089695 276 69ft 0kts
30-Sep-20 08:54 34.210558 -119.089695 276 69ft 0kts
30-Sep-20 08:55 34.210558 -119.089695 276 69ft 0kts
30-Sep-20 08:56 34.210558 -119.089695 276 69ft 0kts
30-Sep-20 08:57 34.210558 -119.089695 276 69ft 0kts
30-Sep-20 08:58 34.210558 -119.089695 276 69ft 0kts
30-Sep-20 08:59 34.210558 -119.089695 276 69ft 0kts
30-Sep-20 09:00 34.210558 -119.089695 276 69ft 0kts
30-Sep-20 09:01 34.210558 -119.089695 276 69ft 0kts
30-Sep-20 09:03 34.210558 -119.089695 276 69ft 0kts
30-Sep-20 09:04 34.210675 -119.089787 5 69ft 5kts
30-Sep-20 09:05 34.210935 -119.085010 90 73ft 21kts
30-Sep-20 09:06 34.210881 -119.083317 271 76ft 16kts
30-Sep-20 09:07 34.212619 -119.084594 7 75ft 0kts
30-Sep-20 09:08 34.213636 -119.085106 276 76ft 21kts
30-Sep-20 09:09 34.213724 -119.107350 271 903ft 75kts
30-Sep-20 09:10 34.223995 -119.117431 83 1801ft 93kts
30-Sep-20 09:11 34.219484 -119.092558 107 2909ft 74kts
30-Sep-20 09:12 34.214553 -119.065161 111 3469ft 112kts
30-Sep-20 09:13 34.202503 -119.028413 129 3458ft 123kts
30-Sep-20 09:14 34.184682 -118.993165 115 3458ft 123kts
30-Sep-20 09:15 34.170007 -118.955984 131 3455ft 123kts
30-Sep-20 09:16 34.150928 -118.921954 116 3458ft 123kts
30-Sep-20 09:17 34.136890 -118.884222 111 3458ft 123kts
30-Sep-20 09:18 34.124206 -118.845765 110 3458ft 123kts
30-Sep-20 09:19 34.111898 -118.807308 110 3458ft 123kts
30-Sep-20 09:19 34.102282 -118.774883 107 3458ft 123kts
30-Sep-20 09:21 34.088882 -118.729462 109 3458ft 123kts
30-Sep-20 09:22 34.076786 -118.690847 110 3458ft 123kts
30-Sep-20 09:22 34.066587 -118.658685 110 3455ft 123kts
30-Sep-20 09:24 34.051350 -118.610992 110 2884ft 126kts
30-Sep-20 09:24 34.040968 -118.578520 110 2490ft 121kts
30-Sep-20 09:25 34.038183 -118.542372 105 2325ft 117kts
30-Sep-20 09:26 34.023842 -118.506753 123 2109ft 115kts
30-Sep-20 09:27 34.008183 -118.471486 113 2000ft 117kts
30-Sep-20 09:28 33.998768 -118.435384 142 2089ft 106kts
30-Sep-20 09:29 33.990861 -118.429787 309 1989ft 116kts
30-Sep-20 09:30 34.008088 -118.431903 148 2445ft 97kts
30-Sep-20 09:31 33.975573 -118.430194 143 2539ft 121kts
30-Sep-20 09:32 33.950206 -118.401286 132 2443ft 122kts
30-Sep-20 09:33 33.926958 -118.374572 138 2444ft 111kts
30-Sep-20 09:34 33.903159 -118.350907 140 2444ft 110kts
30-Sep-20 09:35 33.878659 -118.328146 143 2444ft 110kts
30-Sep-20 09:36 33.856382 -118.305967 106 2534ft 101kts
30-Sep-20 09:37 33.842059 -118.282759 132 3588ft 89kts
30-Sep-20 09:38 33.819416 -118.255588 139 3476ft 123kts
30-Sep-20 09:39 33.794392 -118.228652 135 3470ft 120kts
30-Sep-20 09:40 33.770956 -118.199705 136 3416ft 122kts
30-Sep-20 09:41 33.746215 -118.171758 134 3353ft 122kts
30-Sep-20 09:42 33.726423 -118.138736 114 3310ft 119kts
30-Sep-20 09:43 33.712489 -118.104819 117 3510ft 116kts
30-Sep-20 09:44 33.706180 -118.063697 102 3052ft 129kts
30-Sep-20 09:45 33.702113 -118.021139 89 2537ft 120kts
30-Sep-20 09:46 33.704469 -117.982874 78 2417ft 112kts
30-Sep-20 09:47 33.704562 -117.946624 106 2084ft 120kts
30-Sep-20 09:48 33.694129 -117.913184 109 1488ft 86kts
30-Sep-20 09:49 33.686618 -117.890792 111 1452ft 70kts
30-Sep-20 09:50 33.676371 -117.867777 123 1489ft 82kts
30-Sep-20 09:51 33.686905 -117.852687 334 1414ft 67kts
30-Sep-20 09:52 33.676157 -117.866691 208 60ft 27kts
30-Sep-20 09:53 33.673857 -117.867518 136 60ft 0kts
30-Sep-20 09:54 33.672272 -117.868022 207 60ft 15kts
30-Sep-20 09:55 33.670640 -117.867950 211 60ft 0kts
30-Sep-20 09:56 33.670640 -117.867950 211 60ft 0kts

Navigation Log

Ident Type
Flight plan parsing failed, navigation log unavailable